Time;durP1;ratioP1;P1;durP2;ratioP2;P2;SDS_P1;SDS_P2;PMS_P1;PMS_P2;Temp;Humidity;BMP_temperature;BMP_pressure;BME280_temperature;BME280_humidity;BME280_pressure;Samples;Min_cycle;Max_cycle;Signal;HPM_P1;HPM_P2
2022/07/21 00:00:22;;;;;;;6.00;3.30;;;;;;;25.87;45.92;99562.16;5155378;27;20661;-70
2022/07/21 00:02:48;;;;;;;3.27;2.97;;;;;;;25.87;45.68;99562.16;5155525;27;20225;-69
2022/07/21 00:05:15;;;;;;;3.23;2.60;;;;;;;25.84;46.30;99551.84;5155226;27;20190;-69
2022/07/21 00:07:42;;;;;;;4.90;2.80;;;;;;;25.87;45.97;99551.28;5155380;27;20197;-69
2022/07/21 00:10:10;;;;;;;3.93;2.80;;;;;;;25.95;45.22;99555.25;5155825;27;20193;-70
2022/07/21 00:12:38;;;;;;;4.03;2.37;;;;;;;25.85;45.30;99558.13;5155145;27;20185;-69
2022/07/21 00:15:06;;;;;;;3.17;2.90;;;;;;;25.81;45.23;99557.09;5155416;27;20216;-69
2022/07/21 00:17:33;;;;;;;3.47;3.17;;;;;;;25.76;45.70;99551.72;5155096;27;20217;-69
2022/07/21 00:20:00;;;;;;;2.63;2.43;;;;;;;25.79;45.86;99553.81;5155165;27;20280;-71
2022/07/21 00:22:27;;;;;;;6.73;2.47;;;;;;;25.74;45.71;99545.75;5155294;27;20736;-69
2022/07/21 00:24:54;;;;;;;3.23;2.93;;;;;;;25.71;45.10;99546.31;5155490;27;20613;-69
2022/07/21 00:27:20;;;;;;;3.13;2.37;;;;;;;25.61;45.75;99541.84;5155137;27;20197;-69
2022/07/21 00:29:48;;;;;;;2.63;2.43;;;;;;;25.57;46.05;99551.69;5155497;27;20262;-69
2022/07/21 00:32:15;;;;;;;3.30;3.03;;;;;;;25.66;45.34;99546.41;5155220;27;20257;-69
2022/07/21 00:34:43;;;;;;;3.33;2.40;;;;;;;25.57;45.42;99540.00;5155747;27;20348;-69
2022/07/21 00:37:10;;;;;;;4.17;3.17;;;;;;;25.48;45.75;99547.19;5154527;27;20248;-72
2022/07/21 00:39:37;;;;;;;3.13;2.63;;;;;;;25.42;45.82;99540.19;5154644;27;20189;-70
2022/07/21 00:42:04;;;;;;;2.93;2.73;;;;;;;25.38;46.30;99541.84;5155097;27;20189;-69
2022/07/21 00:44:31;;;;;;;2.80;2.60;;;;;;;25.26;46.91;99538.72;5155225;27;20250;-69
2022/07/21 00:47:00;;;;;;;5.10;2.80;;;;;;;25.16;46.36;99539.66;5154517;27;20348;-69
2022/07/21 00:49:27;;;;;;;3.23;2.90;;;;;;;25.08;46.54;99538.38;5155330;27;20185;-69
2022/07/21 00:51:54;;;;;;;3.87;2.50;;;;;;;24.98;46.28;99535.78;5154865;27;20224;-69
2022/07/21 00:54:21;;;;;;;2.57;2.40;;;;;;;24.99;47.26;99529.22;5154448;27;20242;-69
2022/07/21 00:56:47;;;;;;;4.60;2.20;;;;;;;24.98;46.60;99533.06;5154653;27;20216;-69
2022/07/21 00:59:17;;;;;;;2.53;2.43;;;;;;;24.90;47.02;99530.16;5154736;27;20192;-68
2022/07/21 01:01:43;;;;;;;2.90;2.63;;;;;;;24.93;47.47;99535.84;5153725;27;20690;-70
2022/07/21 01:04:11;;;;;;;5.27;2.57;;;;;;;24.89;47.93;99534.78;5154651;27;20192;-68
2022/07/21 01:06:38;;;;;;;2.80;2.60;;;;;;;24.77;48.30;99530.84;5154458;27;20192;-69
2022/07/21 01:09:05;;;;;;;2.93;2.13;;;;;;;24.65;48.76;99533.94;5154519;27;20245;-69
2022/07/21 01:11:32;;;;;;;2.67;2.37;;;;;;;24.57;48.89;99537.25;5154339;27;20200;-68
2022/07/21 01:13:59;;;;;;;2.53;2.33;;;;;;;24.56;48.73;99534.81;5154326;27;20246;-70
2022/07/21 01:16:26;;;;;;;6.27;2.93;;;;;;;24.64;49.02;99540.50;5153769;27;20199;-70
2022/07/21 01:18:53;;;;;;;3.10;2.90;;;;;;;24.67;48.73;99537.19;5153633;27;20249;-69
2022/07/21 01:21:31;;;;;;;3.93;2.37;;;;;;;24.73;48.71;99533.31;5153782;27;20296;-70
2022/07/21 01:23:57;;;;;;;2.83;2.63;;;;;;;24.81;47.88;99526.44;5153876;27;20311;-70
2022/07/21 01:26:24;;;;;;;3.37;2.13;;;;;;;24.83;47.76;99529.69;5153961;27;20192;-70
2022/07/21 01:28:51;;;;;;;3.07;2.20;;;;;;;24.97;47.84;99541.50;5153818;27;20626;-72
2022/07/21 01:31:18;;;;;;;2.60;2.40;;;;;;;25.06;47.07;99544.41;5153714;27;20188;-70
2022/07/21 01:33:45;;;;;;;2.77;2.30;;;;;;;25.07;46.27;99537.88;5153629;27;20193;-70
2022/07/21 01:36:11;;;;;;;6.27;2.30;;;;;;;25.14;46.48;99535.63;5153813;27;20189;-69
2022/07/21 01:41:33;;;;;;;3.00;2.67;;;;;;;25.10;46.10;99532.66;5116889;27;20683;-70
2022/07/21 01:44:01;;;;;;;3.20;2.43;;;;;;;25.08;46.43;99525.88;5154208;27;20197;-70
2022/07/21 01:46:29;;;;;;;2.13;2.03;;;;;;;25.17;46.47;99524.13;5153762;27;20189;-70
2022/07/21 01:48:56;;;;;;;4.23;2.13;;;;;;;25.26;45.21;99522.38;5154056;27;20229;-71
2022/07/21 01:51:23;;;;;;;2.60;2.40;;;;;;;25.32;44.42;99524.81;5153594;27;20652;-70
2022/07/21 01:53:51;;;;;;;3.23;2.40;;;;;;;25.24;44.78;99514.56;5153850;27;20189;-70
2022/07/21 01:56:20;;;;;;;2.53;2.37;;;;;;;25.13;44.62;99517.66;5153666;27;20189;-70
2022/07/21 01:58:47;;;;;;;2.20;2.10;;;;;;;25.04;44.36;99514.78;5153291;27;20730;-69
2022/07/21 02:01:15;;;;;;;3.53;2.13;;;;;;;24.83;45.24;99525.06;5153144;27;20189;-68
2022/07/21 02:03:42;;;;;;;3.37;2.33;;;;;;;24.77;45.98;99526.22;5153235;27;20599;-69
2022/07/21 02:06:09;;;;;;;4.97;1.97;;;;;;;24.80;45.15;99520.19;5153877;27;20269;-68
2022/07/21 02:08:36;;;;;;;2.17;1.97;;;;;;;24.87;44.87;99517.94;5153926;27;20219;-68
2022/07/21 02:11:05;;;;;;;3.60;2.30;;;;;;;24.98;44.56;99526.81;5153823;27;20189;-68
2022/07/21 02:13:32;;;;;;;2.00;1.90;;;;;;;24.98;44.51;99524.91;5152973;27;20196;-69
2022/07/21 02:15:59;;;;;;;2.27;2.17;;;;;;;25.01;44.51;99523.50;5153386;27;20193;-69
2022/07/21 02:18:26;;;;;;;7.27;2.20;;;;;;;25.04;44.46;99521.00;5152963;27;20760;-69
2022/07/21 02:20:53;;;;;;;3.03;2.30;;;;;;;25.06;44.39;99525.38;5153135;27;20193;-70
2022/07/21 02:23:20;;;;;;;3.73;2.50;;;;;;;24.96;44.14;99524.38;5153279;27;20193;-69
2022/07/21 02:25:47;;;;;;;2.97;2.03;;;;;;;24.89;44.47;99518.50;5153259;27;20246;-68
2022/07/21 02:28:15;;;;;;;3.30;2.07;;;;;;;24.88;44.26;99527.72;5153239;27;20275;-69
2022/07/21 02:30:42;;;;;;;2.60;2.40;;;;;;;24.90;43.94;99525.53;5153115;27;20542;-69
2022/07/21 02:33:09;;;;;;;5.07;2.37;;;;;;;24.90;44.65;99520.09;5153367;27;20200;-69
2022/07/21 02:35:36;;;;;;;4.40;2.63;;;;;;;24.95;45.01;99516.53;5153008;27;20200;-69
2022/07/21 02:38:02;;;;;;;3.40;2.30;;;;;;;24.98;44.70;99519.47;5153116;27;20692;-69
2022/07/21 02:40:29;;;;;;;7.47;2.30;;;;;;;24.92;44.58;99515.16;5153118;27;20660;-69
2022/07/21 02:42:56;;;;;;;3.00;2.70;;;;;;;24.92;44.62;99512.44;5153267;27;20554;-69
2022/07/21 02:45:24;;;;;;;6.43;2.70;;;;;;;24.81;44.82;99513.69;5153270;27;20197;-68
2022/07/21 02:47:53;;;;;;;7.33;2.80;;;;;;;24.71;45.62;99511.06;5153041;27;20240;-68
2022/07/21 02:50:21;;;;;;;4.83;2.93;;;;;;;24.75;44.81;99505.88;5153431;27;20204;-69
2022/07/21 02:52:48;;;;;;;12.87;3.40;;;;;;;24.74;45.47;99504.22;5153002;27;20603;-69
2022/07/21 02:55:15;;;;;;;3.70;3.40;;;;;;;24.77;45.54;99503.66;5152728;27;20624;-69
2022/07/21 02:57:42;;;;;;;3.23;2.83;;;;;;;24.85;45.25;99503.84;5152604;27;20696;-69
2022/07/21 03:00:11;;;;;;;3.10;2.90;;;;;;;25.02;44.81;99510.75;5152934;27;20242;-69
2022/07/21 03:02:39;;;;;;;9.30;4.33;;;;;;;25.16;43.90;99506.22;5152464;27;20204;-69
2022/07/21 03:05:07;;;;;;;8.13;4.33;;;;;;;25.30;44.08;99509.88;5152708;27;20193;-70
2022/07/21 03:07:33;;;;;;;4.50;4.10;;;;;;;25.40;43.44;99512.47;5152972;27;20562;-68
2022/07/21 03:10:00;;;;;;;5.83;4.73;;;;;;;25.49;43.11;99505.28;5152648;27;20745;-71
2022/07/21 03:12:27;;;;;;;6.97;5.03;;;;;;;25.55;43.11;99512.28;5152848;27;20254;-69
2022/07/21 03:14:53;;;;;;;5.03;4.57;;;;;;;25.56;43.23;99513.88;5152968;27;20316;-69
2022/07/21 03:17:20;;;;;;;5.17;4.40;;;;;;;25.64;42.69;99518.69;5152202;27;20660;-68
2022/07/21 03:19:48;;;;;;;5.30;4.57;;;;;;;25.69;42.35;99507.72;5152748;27;20189;-68
2022/07/21 03:22:15;;;;;;;3.90;3.57;;;;;;;25.56;42.15;99511.97;5152465;27;20190;-69
2022/07/21 03:24:42;;;;;;;4.83;4.27;;;;;;;25.36;43.21;99511.44;5152777;27;20200;-69
2022/07/21 03:27:08;;;;;;;4.37;3.67;;;;;;;25.33;43.12;99512.00;5156102;27;20189;-68
2022/07/21 03:29:35;;;;;;;3.93;3.53;;;;;;;25.32;43.44;99515.84;5155822;27;20197;-69
2022/07/21 03:32:02;;;;;;;7.07;3.90;;;;;;;25.27;43.50;99507.72;5155759;27;20196;-69
2022/07/21 03:34:29;;;;;;;3.90;3.60;;;;;;;25.23;43.00;99510.19;5156092;27;20200;-69
2022/07/21 03:36:57;;;;;;;4.30;3.90;;;;;;;25.17;43.75;99516.81;5155559;27;20197;-69
2022/07/21 03:39:24;;;;;;;4.57;3.63;;;;;;;25.28;43.40;99503.91;5155646;27;20224;-69
2022/07/21 03:41:51;;;;;;;4.37;3.73;;;;;;;25.37;43.72;99507.59;5155651;27;20198;-71
2022/07/21 03:44:18;;;;;;;6.20;3.30;;;;;;;25.43;43.34;99518.13;5155849;27;20693;-69
2022/07/21 03:46:44;;;;;;;5.23;3.40;;;;;;;25.36;43.85;99517.69;5155159;27;20196;-69
2022/07/21 03:49:11;;;;;;;5.23;3.27;;;;;;;25.52;43.00;99515.56;5156080;27;20189;-68
2022/07/21 03:51:38;;;;;;;4.00;3.70;;;;;;;25.61;43.17;99516.53;5155539;27;20695;-69
2022/07/21 03:54:06;;;;;;;5.00;3.40;;;;;;;25.71;43.04;99519.09;5155381;27;20242;-68
2022/07/21 03:56:33;;;;;;;4.20;3.30;;;;;;;25.85;42.58;99520.00;5155603;27;20185;-69
2022/07/21 03:58:59;;;;;;;6.57;3.80;;;;;;;26.08;42.00;99508.22;5155627;27;20240;-68
2022/07/21 04:01:26;;;;;;;8.97;3.87;;;;;;;26.11;42.06;99523.97;5155303;27;20197;-70
2022/07/21 04:03:53;;;;;;;4.30;3.50;;;;;;;26.05;41.61;99517.00;5155336;27;20660;-68
2022/07/21 04:06:20;;;;;;;8.03;3.97;;;;;;;25.88;42.38;99519.44;5155900;27;20276;-69
2022/07/21 04:08:46;;;;;;;3.83;3.20;;;;;;;25.83;42.62;99516.75;5155306;27;20668;-69
2022/07/21 04:11:14;;;;;;;10.00;4.00;;;;;;;26.39;41.76;99520.25;5155831;27;20193;-69
2022/07/21 04:13:41;;;;;;;5.67;3.83;;;;;;;27.06;40.45;99517.66;5155557;27;20193;-69
2022/07/21 04:16:08;;;;;;;3.50;3.20;;;;;;;27.80;38.39;99519.13;5154804;27;20242;-70
2022/07/21 04:18:35;;;;;;;5.83;3.40;;;;;;;28.44;36.89;99519.53;5155091;27;20217;-69
2022/07/21 04:21:02;;;;;;;6.47;3.60;;;;;;;29.19;35.62;99519.44;5155192;27;20197;-71
2022/07/21 04:23:29;;;;;;;8.90;3.67;;;;;;;29.81;34.31;99526.38;5155139;27;20192;-69
2022/07/21 04:25:56;;;;;;;3.87;3.20;;;;;;;30.29;33.20;99526.25;5155352;27;20246;-69
2022/07/21 04:28:24;;;;;;;3.30;3.10;;;;;;;30.86;32.40;99525.66;5155365;27;20249;-68
2022/07/21 04:30:51;;;;;;;2.90;2.70;;;;;;;31.36;31.24;99523.03;5154872;27;20193;-68
2022/07/21 04:33:18;;;;;;;5.70;2.90;;;;;;;31.87;30.12;99528.22;5155062;27;20614;-68
2022/07/21 04:35:45;;;;;;;4.67;3.13;;;;;;;32.27;29.41;99529.34;5154098;27;20660;-68
2022/07/21 04:38:12;;;;;;;4.40;3.03;;;;;;;32.54;29.78;99526.81;5154235;27;20281;-68
2022/07/21 04:40:39;;;;;;;3.27;2.53;;;;;;;33.02;28.61;99521.47;5154700;27;20190;-68
2022/07/21 04:43:06;;;;;;;5.03;2.90;;;;;;;33.21;28.33;99529.97;5154672;27;20250;-69
2022/07/21 04:45:34;;;;;;;2.70;2.50;;;;;;;33.53;27.69;99530.19;5154318;27;20193;-68
2022/07/21 04:48:01;;;;;;;4.67;2.67;;;;;;;33.82;27.68;99532.72;5154535;27;20228;-69
2022/07/21 04:50:29;;;;;;;6.47;3.10;;;;;;;34.18;27.21;99529.84;5154721;27;20190;-69
2022/07/21 04:52:58;;;;;;;3.97;3.15;;;;;;;34.42;26.67;99519.53;5154037;27;20214;-67
2022/07/21 04:55:26;;;;;;;4.32;3.53;;;;;;;34.51;27.10;99524.91;5154336;27;20192;-67
2022/07/21 04:57:54;;;;;;;5.72;3.20;;;;;;;35.06;26.96;99517.31;5154526;27;20254;-69
2022/07/21 05:00:23;;;;;;;3.60;3.17;;;;;;;35.10;26.54;99525.69;5154122;27;20193;-70
2022/07/21 05:02:53;;;;;;;6.25;3.03;;;;;;;35.62;26.24;99534.47;5154417;27;20241;-70
2022/07/21 05:05:20;;;;;;;6.50;3.40;;;;;;;35.93;26.31;99528.91;5153645;27;20796;-70
2022/07/21 05:07:47;;;;;;;5.28;3.05;;;;;;;36.21;25.71;99537.81;5153922;27;20626;-69
2022/07/21 05:10:15;;;;;;;4.72;3.08;;;;;;;36.20;25.30;99533.41;5154163;27;20189;-68
2022/07/21 05:12:43;;;;;;;5.88;2.88;;;;;;;36.29;25.32;99539.59;5153605;27;20213;-69
2022/07/21 05:15:12;;;;;;;6.63;3.30;;;;;;;36.54;24.91;99543.63;5153534;27;20200;-68
2022/07/21 05:17:39;;;;;;;6.15;3.25;;;;;;;36.55;25.17;99534.94;5153537;27;20228;-69
2022/07/21 05:20:09;;;;;;;6.47;2.95;;;;;;;36.41;25.35;99533.88;5153472;27;20282;-69
2022/07/21 05:22:35;;;;;;;8.82;3.20;;;;;;;36.80;24.96;99527.94;5153920;27;20194;-69
2022/07/21 05:25:02;;;;;;;6.68;2.92;;;;;;;36.34;24.52;99540.06;5154262;27;20193;-65
2022/07/21 05:27:29;;;;;;;5.28;2.80;;;;;;;36.07;25.77;99530.00;5153791;27;20250;-64
2022/07/21 05:29:56;;;;;;;11.27;2.65;;;;;;;36.14;25.34;99530.13;5153954;27;20197;-64
2022/07/21 05:32:22;;;;;;;12.75;3.22;;;;;;;36.33;25.11;99524.63;5142182;27;20657;-66
2022/07/21 05:34:49;;;;;;;4.45;2.80;;;;;;;36.42;24.49;99529.94;5132561;27;20190;-65
2022/07/21 05:37:17;;;;;;;8.10;2.67;;;;;;;36.41;25.47;99525.56;5132486;27;20677;-67
2022/07/21 05:39:44;;;;;;;12.25;3.25;;;;;;;36.59;24.24;99526.72;5132706;27;20832;-67
2022/07/21 05:42:11;;;;;;;4.90;2.53;;;;;;;36.40;24.97;99533.09;5132461;27;20194;-67
2022/07/21 05:44:37;;;;;;;4.47;2.58;;;;;;;36.84;24.51;99530.78;5132656;27;20201;-66
2022/07/21 05:47:04;;;;;;;3.10;2.30;;;;;;;36.86;24.11;99533.97;5132117;27;20255;-66
2022/07/21 05:49:31;;;;;;;4.05;2.50;;;;;;;36.92;24.00;99532.50;5131781;27;20182;-66
2022/07/21 05:51:58;;;;;;;9.20;2.97;;;;;;;36.43;24.23;99523.25;5131968;27;20688;-67
2022/07/21 05:54:26;;;;;;;6.45;2.28;;;;;;;36.52;24.43;99518.28;5132326;27;20246;-66
2022/07/21 05:56:52;;;;;;;3.42;2.20;;;;;;;36.45;24.86;99523.66;5132168;27;20196;-66
2022/07/21 05:59:19;;;;;;;3.45;2.63;;;;;;;36.69;24.91;99520.59;5132515;27;20217;-67
2022/07/21 06:01:46;;;;;;;8.35;2.70;;;;;;;36.66;24.33;99513.00;5132264;27;20194;-67
2022/07/21 06:04:13;;;;;;;6.78;2.58;;;;;;;36.72;24.61;99522.63;5132001;27;20278;-67
2022/07/21 06:06:39;;;;;;;13.32;2.78;;;;;;;36.74;25.02;99520.28;5131894;27;20193;-65
2022/07/21 06:09:06;;;;;;;18.42;3.47;;;;;;;37.11;24.27;99515.81;5132096;27;20193;-65
2022/07/21 06:11:34;;;;;;;8.20;3.08;;;;;;;37.07;24.57;99517.72;5132001;27;20634;-65
2022/07/21 06:14:01;;;;;;;4.78;2.40;;;;;;;36.95;24.45;99520.69;5132301;28;20190;-64
2022/07/21 06:16:28;;;;;;;6.45;2.42;;;;;;;36.51;25.10;99513.91;5132181;28;20190;-65
2022/07/21 06:18:54;;;;;;;9.95;2.58;;;;;;;36.40;24.71;99513.72;5131744;28;20219;-65
2022/07/21 06:21:21;;;;;;;7.00;2.25;;;;;;;36.39;25.30;99508.53;5131373;28;20250;-65
2022/07/21 06:23:48;;;;;;;7.40;2.55;;;;;;;36.63;24.54;99497.91;5132088;28;20190;-65
2022/07/21 06:26:14;;;;;;;7.47;2.42;;;;;;;36.64;25.36;99507.03;5131869;28;20247;-64
2022/07/21 06:28:43;;;;;;;5.53;2.88;;;;;;;36.57;24.02;99498.59;5131663;28;20198;-65
2022/07/21 06:31:09;;;;;;;4.13;2.30;;;;;;;36.32;24.12;99498.13;5132125;28;20190;-65
2022/07/21 06:33:36;;;;;;;3.83;2.58;;;;;;;35.98;23.54;99495.41;5131538;27;20201;-65
2022/07/21 06:36:03;;;;;;;6.88;2.58;;;;;;;35.46;23.31;99486.72;5132072;28;20639;-65
2022/07/21 06:38:31;;;;;;;2.13;2.00;;;;;;;35.33;23.86;99493.53;5131053;28;20250;-65
2022/07/21 06:40:57;;;;;;;6.88;2.45;;;;;;;35.40;23.91;99488.19;5131462;27;20548;-65
2022/07/21 06:43:24;;;;;;;9.30;2.88;;;;;;;35.38;24.39;99484.97;5131398;27;20665;-64
2022/07/21 06:45:52;;;;;;;4.90;2.38;;;;;;;35.49;23.73;99480.50;5131739;27;20254;-65
2022/07/21 06:48:19;;;;;;;3.65;2.30;;;;;;;35.70;23.30;99483.72;5131153;28;20225;-65
2022/07/21 06:50:46;;;;;;;4.70;2.30;;;;;;;35.41;23.87;99484.25;5131330;28;20206;-65
2022/07/21 06:53:12;;;;;;;5.47;2.70;;;;;;;35.04;23.54;99480.19;5130909;27;20202;-71
2022/07/21 06:55:39;;;;;;;24.02;3.70;;;;;;;34.75;23.77;99478.66;5126201;27;20194;-72
2022/07/21 06:58:10;;;;;;;3.55;2.08;;;;;;;34.98;24.05;99476.88;5132172;28;20197;-71
2022/07/21 07:00:37;;;;;;;10.00;2.50;;;;;;;35.28;23.93;99480.00;5135629;27;20696;-72
2022/07/21 07:03:06;;;;;;;14.27;3.40;;;;;;;35.59;24.19;99475.19;5135557;27;20182;-72
2022/07/21 07:05:32;;;;;;;4.05;2.97;;;;;;;36.02;24.06;99472.22;5134889;27;20201;-66
2022/07/21 07:08:00;;;;;;;7.43;3.15;;;;;;;36.03;23.65;99467.47;5132900;27;20634;-70
2022/07/21 07:10:28;;;;;;;4.20;2.55;;;;;;;36.42;23.04;99469.84;5131822;27;20201;-71
2022/07/21 07:12:55;;;;;;;10.32;2.80;;;;;;;36.43;22.73;99471.47;5133219;27;20190;-70
2022/07/21 07:15:22;;;;;;;3.78;2.80;;;;;;;36.02;23.49;99450.09;5131864;27;20197;-68
2022/07/21 07:17:49;;;;;;;17.15;4.03;;;;;;;36.39;23.05;99465.06;5133579;27;20310;-69
2022/07/21 07:20:17;;;;;;;9.07;3.00;;;;;;;35.99;23.23;99455.53;5132447;27;20217;-69
2022/07/21 07:22:44;;;;;;;5.13;3.35;;;;;;;35.40;23.59;99450.28;5134561;27;20251;-68
2022/07/21 07:25:11;;;;;;;12.43;3.15;;;;;;;35.17;23.90;99445.75;5135469;27;20194;-68
2022/07/21 07:27:38;;;;;;;5.07;3.65;;;;;;;35.04;24.23;99452.56;5135822;27;20190;-68
2022/07/21 07:30:06;;;;;;;5.40;3.58;;;;;;;34.72;24.37;99446.22;5135247;27;20189;-69
2022/07/21 07:32:33;;;;;;;5.13;3.05;;;;;;;34.70;24.63;99443.00;5133996;27;20201;-69
2022/07/21 07:34:59;;;;;;;8.68;3.40;;;;;;;34.89;24.18;99445.06;5133518;27;20210;-69
2022/07/21 07:37:28;;;;;;;8.23;3.22;;;;;;;35.15;24.13;99443.34;5133764;27;20259;-70
2022/07/21 07:39:54;;;;;;;9.63;3.55;;;;;;;35.35;24.19;99442.28;5133566;27;20225;-69
2022/07/21 07:42:21;;;;;;;6.80;3.35;;;;;;;35.46;23.84;99446.09;5131830;27;20734;-70
2022/07/21 07:44:48;;;;;;;6.18;2.50;;;;;;;35.66;23.70;99438.59;5133198;27;20653;-71
2022/07/21 07:47:15;;;;;;;8.93;3.22;;;;;;;35.74;24.15;99432.88;5129745;27;20282;-69
2022/07/21 07:49:41;;;;;;;6.90;2.78;;;;;;;35.53;24.14;99437.16;5133104;27;20198;-68
2022/07/21 07:52:08;;;;;;;6.55;3.10;;;;;;;35.78;23.79;99436.53;5133144;27;20598;-70
2022/07/21 07:54:38;;;;;;;6.20;2.45;;;;;;;35.80;23.55;99433.44;5133408;27;20701;-68
2022/07/21 07:57:05;;;;;;;5.28;2.50;;;;;;;35.92;24.11;99433.25;5132478;27;20190;-70
2022/07/21 07:59:31;;;;;;;11.73;3.10;;;;;;;36.10;23.77;99437.19;5132962;27;20217;-68
2022/07/21 08:01:58;;;;;;;4.18;2.72;;;;;;;36.16;23.98;99430.16;5134625;27;20190;-69
2022/07/21 08:04:25;;;;;;;7.07;2.80;;;;;;;36.15;23.75;99432.16;5132178;27;20186;-67
2022/07/21 08:06:52;;;;;;;5.00;2.65;;;;;;;36.25;23.38;99426.03;5132641;27;20258;-67
2022/07/21 08:09:19;;;;;;;6.30;2.70;;;;;;;36.73;22.99;99427.31;5132061;27;20243;-67
2022/07/21 08:11:50;;;;;;;11.55;3.50;;;;;;;36.86;24.00;99423.97;5129106;27;20686;-68
2022/07/21 08:14:18;;;;;;;8.98;2.75;;;;;;;36.85;22.96;99427.09;5131920;27;20222;-66
2022/07/21 08:16:45;;;;;;;6.72;2.50;;;;;;;36.62;23.69;99423.56;5132594;27;20190;-66
2022/07/21 08:19:12;;;;;;;8.93;3.17;;;;;;;36.98;22.74;99428.50;5132179;27;20222;-67
2022/07/21 08:21:39;;;;;;;5.72;3.17;;;;;;;37.22;22.73;99417.03;5134463;27;20190;-67
2022/07/21 08:24:06;;;;;;;8.85;3.03;;;;;;;37.59;22.25;99422.72;5132992;27;20193;-67
2022/07/21 08:26:32;;;;;;;6.93;2.72;;;;;;;37.76;21.65;99416.59;5132781;27;20186;-69
2022/07/21 08:29:01;;;;;;;4.10;2.53;;;;;;;37.62;22.12;99416.41;5132554;27;20658;-68
2022/07/21 08:31:27;;;;;;;2.20;1.95;;;;;;;37.40;22.70;99404.22;5133292;27;20190;-67
2022/07/21 08:33:54;;;;;;;4.78;2.50;;;;;;;37.38;22.49;99401.03;5134349;27;20194;-65
2022/07/21 08:36:21;;;;;;;7.22;2.15;;;;;;;37.16;22.54;99410.22;5134340;27;20247;-66
2022/07/21 08:38:48;;;;;;;4.15;2.60;;;;;;;37.35;22.65;99406.53;5134079;27;20190;-64
2022/07/21 08:41:14;;;;;;;3.92;2.72;;;;;;;37.56;22.18;99413.16;5134216;27;20561;-66
2022/07/21 08:43:42;;;;;;;4.95;2.65;;;;;;;37.63;22.62;99404.94;5134015;27;20201;-65
2022/07/21 08:46:10;;;;;;;6.30;2.30;;;;;;;37.68;22.03;99401.84;5134035;27;20254;-66
2022/07/21 08:48:37;;;;;;;3.80;2.40;;;;;;;37.85;21.95;99406.81;5132973;27;20231;-71
2022/07/21 08:51:04;;;;;;;4.10;2.17;;;;;;;37.80;22.46;99412.69;5133776;27;20691;-66
2022/07/21 08:53:33;;;;;;;24.35;3.30;;;;;;;37.61;22.98;99409.28;5130364;27;20626;-70
2022/07/21 08:56:00;;;;;;;4.28;2.10;;;;;;;37.53;22.67;99397.28;5132466;27;20193;-72
2022/07/21 08:58:26;;;;;;;10.05;2.88;;;;;;;37.87;22.35;99404.44;5132791;27;20190;-73
2022/07/21 09:00:54;;;;;;;3.70;2.08;;;;;;;37.64;22.36;99395.44;5132332;27;20597;-67
2022/07/21 09:03:25;;;;;;;4.00;2.00;;;;;;;37.68;22.37;99381.63;5133431;27;20658;-68
2022/07/21 09:06:06;;;;;;;6.68;2.33;;;;;;;37.61;22.59;99387.91;5133718;27;20182;-70
2022/07/21 09:08:36;;;;;;;11.25;2.70;;;;;;;37.52;22.24;99383.78;5132660;27;20484;-70
2022/07/21 09:11:19;;;;;;;5.07;2.30;;;;;;;37.65;22.68;99383.19;5133029;27;20201;-68
2022/07/21 09:13:51;;;;;;;15.80;2.88;;;;;;;37.53;23.23;99377.88;5133784;27;20182;-69
2022/07/21 09:16:33;;;;;;;4.15;2.13;;;;;;;37.23;22.40;99383.41;5133458;27;20189;-71
2022/07/21 09:19:02;;;;;;;109.35;7.70;;;;;;;37.48;22.27;99378.19;5133979;27;20264;-69
2022/07/21 09:21:29;;;;;;;7.45;2.15;;;;;;;37.54;22.33;99382.22;5133233;27;20768;-69
2022/07/21 09:24:12;;;;;;;8.60;2.60;;;;;;;37.84;22.10;99368.34;5134063;27;20690;-66
2022/07/21 09:26:58;;;;;;;2.50;2.30;;;;;;;37.70;22.66;99369.00;5133224;27;20182;-69
2022/07/21 09:29:25;;;;;;;5.40;2.65;;;;;;;37.86;21.56;99371.53;5133393;27;20186;-72
2022/07/21 09:31:51;;;;;;;2.58;2.08;;;;;;;37.79;22.03;99369.47;5133041;27;20588;-68
2022/07/21 09:34:20;;;;;;;16.65;3.90;;;;;;;37.89;22.02;99366.03;5133535;27;20280;-69
2022/07/21 09:36:56;;;;;;;2.40;2.13;;;;;;;38.28;21.52;99358.13;5133295;27;20285;-67
2022/07/21 09:39:44;;;;;;;8.18;2.35;;;;;;;38.57;21.55;99358.00;5133867;27;20634;-70
2022/07/21 09:42:22;;;;;;;4.38;2.20;;;;;;;38.40;21.08;99355.88;5112585;28;20634;-70
2022/07/21 09:44:51;;;;;;;6.93;2.17;;;;;;;38.35;21.54;99355.41;5112878;28;20186;-72
2022/07/21 09:47:23;;;;;;;3.70;2.08;;;;;;;37.81;21.74;99361.59;5112318;28;20264;-77
2022/07/21 09:49:52;;;;;;;2.33;2.15;;;;;;;38.20;20.89;99354.50;5111804;28;20704;-71
2022/07/21 09:52:25;;;;;;;2.90;2.08;;;;;;;38.07;21.25;99355.94;5112329;28;20259;-71
2022/07/21 09:54:54;;;;;;;3.83;2.03;;;;;;;38.03;21.91;99349.56;5113345;28;20185;-71
2022/07/21 09:57:22;;;;;;;4.55;2.50;;;;;;;38.24;21.50;99338.66;5112629;28;20190;-74
2022/07/21 09:59:50;;;;;;;2.97;2.13;;;;;;;38.26;20.98;99347.41;5112480;28;20228;-76
2022/07/21 10:02:20;;;;;;;5.85;2.47;;;;;;;38.02;21.76;99349.91;5112191;28;20220;-73
2022/07/21 10:04:49;;;;;;;2.53;2.35;;;;;;;38.35;21.94;99347.09;5112715;28;20202;-71
2022/07/21 10:07:19;;;;;;;2.10;2.00;;;;;;;38.30;21.06;99345.47;5112370;28;20206;-72
2022/07/21 10:09:46;;;;;;;4.05;2.35;;;;;;;38.42;21.00;99339.63;5112371;28;20206;-73
2022/07/21 10:12:14;;;;;;;3.30;3.00;;;;;;;38.15;21.78;99329.88;5112516;28;20198;-72
2022/07/21 10:14:42;;;;;;;3.20;2.97;;;;;;;38.60;21.31;99329.47;5112401;28;20191;-72
2022/07/21 10:17:09;;;;;;;5.97;2.30;;;;;;;38.56;20.56;99328.66;5111902;28;20248;-72
2022/07/21 10:19:49;;;;;;;3.58;1.98;;;;;;;38.56;21.09;99323.09;5111883;28;20194;-75
2022/07/21 10:22:26;;;;;;;6.38;2.65;;;;;;;38.95;20.15;99321.41;5112388;28;20186;-74
2022/07/21 10:24:54;;;;;;;2.30;2.20;;;;;;;38.95;20.56;99317.84;5112151;28;20190;-73
2022/07/21 10:27:20;;;;;;;3.22;2.47;;;;;;;38.97;20.80;99307.94;5112332;28;20194;-73
2022/07/21 10:30:00;;;;;;;7.18;2.92;;;;;;;38.97;20.75;99316.25;5112463;28;20248;-76
2022/07/21 10:32:30;;;;;;;2.08;1.90;;;;;;;39.06;20.76;99305.59;5112478;28;20190;-72
2022/07/21 10:34:57;;;;;;;4.22;2.65;;;;;;;38.93;20.20;99297.97;5114879;28;20191;-69
2022/07/21 10:37:48;;;;;;;6.85;2.22;;;;;;;39.05;20.21;99295.66;5116519;28;20197;-76
2022/07/21 10:40:40;;;;;;;4.88;1.85;;;;;;;38.80;20.65;99288.34;5121510;27;20297;-71
2022/07/21 10:43:40;;;;;;;3.47;2.10;;;;;;;38.54;20.70;99286.56;5136552;27;20193;-72
2022/07/21 10:46:38;;;;;;;4.20;1.88;;;;;;;38.67;20.87;99285.09;5136726;27;20281;-72
2022/07/21 10:49:10;;;;;;;8.02;2.55;;;;;;;38.81;20.64;99284.38;5136451;27;20186;-76
2022/07/21 10:51:38;;;;;;;2.50;2.08;;;;;;;39.01;20.61;99294.03;5136505;27;20208;-77
2022/07/21 10:54:21;;;;;;;2.90;2.08;;;;;;;38.87;21.12;99289.16;5136487;27;20258;-72
2022/07/21 10:56:48;;;;;;;1.92;1.83;;;;;;;38.91;21.34;99278.91;5137281;27;20178;-76
2022/07/21 10:59:15;;;;;;;4.18;2.25;;;;;;;39.02;21.16;99279.75;5137064;27;20611;-76
2022/07/21 11:01:42;;;;;;;2.35;2.25;;;;;;;39.21;20.60;99276.69;5136518;27;20279;-72
2022/07/21 11:04:10;;;;;;;2.20;2.10;;;;;;;39.37;20.22;99279.94;5136730;27;20257;-70
2022/07/21 11:06:38;;;;;;;2.30;2.20;;;;;;;39.38;19.49;99277.94;5137148;27;20186;-71
2022/07/21 11:09:10;;;;;;;2.42;2.20;;;;;;;39.47;19.60;99273.59;5136182;27;20730;-71
2022/07/21 11:11:40;;;;;;;3.30;2.13;;;;;;;39.43;19.63;99272.03;5137109;27;20197;-67
2022/07/21 11:14:09;;;;;;;3.88;1.98;;;;;;;39.19;20.28;99267.91;5136745;27;20605;-71
2022/07/21 11:17:02;;;;;;;3.35;2.28;;;;;;;39.23;20.20;99263.16;5136877;27;20236;-71
2022/07/21 11:19:30;;;;;;;2.42;2.13;;;;;;;39.45;20.04;99270.44;5136848;27;20269;-71
2022/07/21 11:21:59;;;;;;;2.92;2.30;;;;;;;39.06;20.14;99263.91;5136174;27;20267;-73
2022/07/21 11:24:27;;;;;;;6.18;2.03;;;;;;;38.98;20.40;99251.16;5136213;27;20190;-69
2022/07/21 11:26:57;;;;;;;2.75;2.47;;;;;;;39.05;20.32;99256.75;5136386;27;20678;-69
2022/07/21 11:29:24;;;;;;;4.03;2.10;;;;;;;38.90;20.03;99254.28;5135973;27;20186;-70
2022/07/21 11:31:51;;;;;;;6.80;2.10;;;;;;;38.64;20.54;99257.28;5136558;27;20576;-72
2022/07/21 11:34:18;;;;;;;2.55;2.45;;;;;;;38.70;20.73;99255.75;5135868;27;20194;-71
2022/07/21 11:36:45;;;;;;;6.80;2.55;;;;;;;38.48;20.69;99249.25;5135637;27;20710;-69
2022/07/21 11:39:13;;;;;;;4.88;2.30;;;;;;;38.22;21.21;99252.22;5135671;27;20637;-71